Pollock, ID (83547)

10:20 PM PDT on October 25, 2014 (GMT -0700)
Idaho Cnty AP, Grangeville, I | Change Station
CLOSE
Current Station
Airport
Location: Idaho Cnty AP, Grangeville, I,
Elevation: 3314 ft
Nearby Weather Stations

Elev 3314 ft 45.94 °N, 116.12 °W | Updated 5 minutes ago

Overcast
Overcast
58 °F
Feels Like 58 °F
N
24
Wind Variable Wind from WSW
Gusts 30 mph

Today
High -- | Low -- °F
--% Chance of Precip.
Yesterday
High -- | Low -- °F
Precip. -- in
7:14 AM 5:43 PM
Waxing Crescent, 6% visible
Pressure 29.74 in
Visibility 10.0 miles
Clouds Overcast 8000 ft
Dew Point 35 °F
Humidity 42%
Rainfall 0.00 in
Snow Depth 0 in
UV 0 out of 12
Pollen 2.40 out of 12
PM2.5 Good
Flu Activity No Activity
METAR KGIC 260515Z AUTO 24021G26KT 10SM OVC080 14/02 A2974 RMK AO1 T01440015

More Conditions Fewer Conditions

Pressure 29.74 in
Visibility 10.0 miles
Clouds Overcast 8000 ft
Dew Point 35 °F
Humidity 42%
Rainfall 0.00 in
Snow Depth 0 in
UV 0 out of 12
Pollen 2.40 out of 12
PM2.5 Good
Flu Activity No Activity
METAR KGIC 260515Z AUTO 24021G26KT 10SM OVC080 14/02 A2974 RMK AO1 T01440015

More Conditions Fewer Conditions

10-Day Weather Forecast

Almanac

Astronomy

Oct. 25, 2014 Rise Set
Actual Time 7:14 AM PDT 5:43 PM PDT
Civil Twilight 6:44 AM PDT 6:13 PM PDT
Nautical Twilight 6:10 AM PDT 6:48 PM PDT
Astronomical Twilight 5:35 AM PDT 7:22 PM PDT
Moon 9:01 AM PDT (10/25) 7:05 PM PDT (10/25)
Length of Visible Light 11h 28m
Length of Day
10h 28m
Tomorrow will be 2m 56s shorter.
Waxing Crescent, 6% of the Moon is Illuminated
Oct 26
Waxing Crescent
Oct 30
First Quarter
Nov 6
Full
Nov 14
Last Quarter
Nov 22
New

Yesterday's Extremes

State Highs State Lows

Community

WunderPhotos

Upload Photos

1,765,112 photos uploaded!

Nearby

Air Quality

  Air Quality AQ Index Pollutant
Yesterday Good
PM2.5
Current Good
PM2.5
Saturday Good
PM2.5
Sunday Good
PM2.5
Monday Good
PM2.5

Snow Depth

Station Depth Elevation
Secesh Summit 0 in 6520 ft
Bear Basin 0 in 5350 ft
Squaw Flat 1 in 6240 ft
Big Creek Summit 3 in 6580 ft
Van Wyck 0 in 4920 ft

Earthquake Activity

City Distance Mag. Time & Date
No recent earthquake activity has been reported nearby.
Minimum magnitude displayed is 2.5.

Coastal Water Temperatures

Place Temperature
No Stations Reporting

Nearby Weather Stations